Time;durP1;ratioP1;P1;durP2;ratioP2;P2;SDS_P1;SDS_P2;PMS_P1;PMS_P2;Temp;Humidity;BMP_temperature;BMP_pressure;BME280_temperature;BME280_humidity;BME280_pressure;Samples;Min_cycle;Max_cycle;Signal;HPM_P1;HPM_P2
2022/10/14 00:00:22;;;;;;;22.23;9.18;;;;;;;-145.69;100.00;52608.75;5056183;28;20199;-84
2022/10/14 00:02:49;;;;;;;22.75;8.50;;;;;;;-145.69;100.00;52583.00;5055824;28;20227;-83
2022/10/14 00:05:15;;;;;;;21.15;9.23;;;;;;;-145.69;100.00;52596.88;5055711;28;20206;-84
2022/10/14 00:07:43;;;;;;;21.77;9.23;;;;;;;-145.69;100.00;52622.63;5056291;28;20200;-84
2022/10/14 00:10:11;;;;;;;18.00;9.10;;;;;;;-145.69;100.00;52594.91;5054178;28;20578;-84
2022/10/14 00:12:37;;;;;;;16.52;8.25;;;;;;;-145.69;100.00;52634.50;5055895;28;20210;-84
2022/10/14 00:15:05;;;;;;;22.37;9.00;;;;;;;-145.69;100.00;52598.84;5055151;28;20199;-83
2022/10/14 00:17:32;;;;;;;17.30;8.02;;;;;;;-145.69;100.00;52598.84;5055652;28;20231;-83
2022/10/14 00:19:59;;;;;;;19.13;8.70;;;;;;;-145.69;100.00;52585.00;5055700;28;20199;-82
2022/10/14 00:22:26;;;;;;;15.35;7.00;;;;;;;-145.69;100.00;52590.94;5055530;28;20223;-83
2022/10/14 00:24:52;;;;;;;14.55;6.95;;;;;;;-145.69;100.00;52559.25;5067088;28;20195;-84
2022/10/14 00:27:20;;;;;;;19.35;7.20;;;;;;;-145.69;100.00;52586.97;5075869;28;20557;-84
2022/10/14 00:29:47;;;;;;;29.95;7.82;;;;;;;-145.69;100.00;52590.94;5075489;28;20669;-83
2022/10/14 00:32:14;;;;;;;15.77;7.28;;;;;;;-145.69;100.00;52581.03;5075241;28;20685;-84
2022/10/14 00:34:41;;;;;;;17.37;7.47;;;;;;;-145.69;100.00;52618.66;5075373;28;20214;-83
2022/10/14 00:37:07;;;;;;;30.45;7.57;;;;;;;-145.69;100.00;52630.53;5063129;28;20204;-83
2022/10/14 00:39:34;;;;;;;11.17;6.63;;;;;;;-145.69;100.00;52592.91;5035537;28;20196;-83
2022/10/14 00:42:00;;;;;;;15.90;5.93;;;;;;;-145.69;100.00;52586.97;5037570;28;20661;-83
2022/10/14 00:45:01;;;;;;;12.60;5.97;;;;;;;-145.69;100.00;52602.81;5034549;28;20204;-83
2022/10/14 00:47:28;;;;;;;15.67;6.60;;;;;;;-145.69;100.00;52598.84;5035160;28;20286;-84
2022/10/14 00:49:54;;;;;;;18.10;6.30;;;;;;;-145.69;100.00;52563.22;5035583;28;20208;-83
2022/10/14 00:52:23;;;;;;;14.55;6.65;;;;;;;-145.69;100.00;52575.09;5035323;28;20200;-82
2022/10/14 00:54:53;;;;;;;13.75;7.20;;;;;;;-145.69;100.00;52604.81;5055154;28;20199;-83
2022/10/14 00:57:21;;;;;;;16.30;6.80;;;;;;;-145.69;100.00;52577.06;5074691;28;20306;-83
2022/10/14 00:59:47;;;;;;;19.60;6.53;;;;;;;-145.69;100.00;52585.00;5074849;28;20233;-82
2022/10/14 01:02:15;;;;;;;17.57;6.00;;;;;;;-145.69;100.00;52583.00;5074698;28;20231;-84
2022/10/14 01:04:44;;;;;;;12.52;6.25;;;;;;;-145.69;100.00;52575.09;5074848;28;20691;-85
2022/10/14 01:07:19;;;;;;;22.13;5.97;;;;;;;-145.69;100.00;52608.75;5075505;28;20214;-84
2022/10/14 01:09:53;;;;;;;11.63;6.20;;;;;;;-145.69;100.00;52594.91;5075223;28;20198;-83
2022/10/14 01:12:40;;;;;;;20.97;7.40;;;;;;;-145.69;100.00;52579.06;5074797;28;20206;-84
2022/10/14 01:15:16;;;;;;;14.67;6.30;;;;;;;-145.69;100.00;52563.22;5075365;28;20557;-84
2022/10/14 01:17:55;;;;;;;14.83;7.00;;;;;;;-145.69;100.00;52636.50;5075223;28;20233;-84
2022/10/14 01:20:45;;;;;;;15.90;6.07;;;;;;;-145.69;100.00;52577.06;5075779;28;20660;-85
2022/10/14 01:23:36;;;;;;;20.10;7.33;;;;;;;-145.69;100.00;52598.84;5075996;28;20230;-84
2022/10/14 01:26:20;;;;;;;18.53;6.60;;;;;;;-145.69;100.00;52598.84;5035657;28;20200;-86
2022/10/14 01:28:54;;;;;;;14.93;7.50;;;;;;;-145.69;100.00;52586.97;5034952;28;20207;-84
2022/10/14 01:31:26;;;;;;;13.20;5.80;;;;;;;-145.69;100.00;52600.84;5034354;28;20208;-84
2022/10/14 01:33:57;;;;;;;19.10;7.47;;;;;;;-145.69;100.00;52583.00;5034913;28;20717;-84
2022/10/14 01:36:30;;;;;;;13.83;7.40;;;;;;;-145.69;100.00;52602.81;5034917;28;20204;-82
2022/10/14 01:39:02;;;;;;;16.83;7.47;;;;;;;-145.69;100.00;52614.72;5035377;28;20206;-84
2022/10/14 01:41:30;;;;;;;19.27;7.73;;;;;;;-145.69;100.00;52592.91;5035100;28;20609;-84
2022/10/14 01:44:03;;;;;;;19.23;7.10;;;;;;;-145.69;100.00;52602.81;5034945;28;20231;-83
2022/10/14 01:46:33;;;;;;;12.73;6.53;;;;;;;-145.69;100.00;52630.53;5035258;28;20200;-83
2022/10/14 01:49:04;;;;;;;11.77;6.30;;;;;;;-145.69;100.00;52626.59;5035408;28;20668;-83
2022/10/14 01:51:36;;;;;;;11.57;6.17;;;;;;;-145.69;100.00;52612.72;5033405;28;20199;-84
2022/10/14 01:54:08;;;;;;;15.45;6.95;;;;;;;-145.69;100.00;52602.81;5045615;28;20225;-83
2022/10/14 01:56:36;;;;;;;14.40;6.68;;;;;;;-145.69;100.00;52573.13;5056963;28;20197;-83
2022/10/14 01:59:04;;;;;;;13.70;6.83;;;;;;;-145.69;100.00;52594.91;5033615;28;20202;-83
2022/10/14 02:01:33;;;;;;;19.00;7.20;;;;;;;-145.69;100.00;52598.84;5033474;28;20643;-83
2022/10/14 02:04:00;;;;;;;17.02;6.90;;;;;;;-145.69;100.00;52622.63;5031876;28;20729;-83
2022/10/14 02:06:30;;;;;;;17.98;7.22;;;;;;;-145.69;100.00;52602.81;5084073;28;20678;-83
2022/10/14 02:09:08;;;;;;;15.52;7.47;;;;;;;-145.69;100.00;52632.53;5053420;28;20207;-83
2022/10/14 02:11:41;;;;;;;15.75;7.55;;;;;;;-145.69;100.00;52616.69;5067447;28;20221;-83
2022/10/14 02:14:18;;;;;;;19.33;6.88;;;;;;;-145.69;100.00;52610.75;5071629;28;20562;-83
2022/10/14 02:16:55;;;;;;;20.13;6.88;;;;;;;-145.69;100.00;52616.69;5051029;28;20214;-82
2022/10/14 02:19:28;;;;;;;16.07;6.00;;;;;;;-145.69;100.00;52608.75;5053355;28;20318;-81
2022/10/14 02:22:01;;;;;;;15.93;7.13;;;;;;;-145.69;100.00;52628.56;5052829;28;20834;-82
2022/10/14 02:24:32;;;;;;;14.50;6.53;;;;;;;-145.69;100.00;52590.94;5061572;28;20205;-82
2022/10/14 02:27:04;;;;;;;19.15;6.85;;;;;;;-145.69;100.00;52573.13;5073311;28;20206;-81
2022/10/14 02:29:33;;;;;;;17.05;5.90;;;;;;;-145.69;100.00;52604.81;5072860;28;20661;-82
2022/10/14 02:32:03;;;;;;;11.27;6.85;;;;;;;-145.69;100.00;52598.84;5073210;28;20198;-82
2022/10/14 02:34:29;;;;;;;18.07;6.87;;;;;;;-145.69;100.00;52600.84;5050035;28;20244;-82
2022/10/14 02:36:56;;;;;;;14.25;6.53;;;;;;;-145.69;100.00;52590.94;5052947;28;20620;-82
2022/10/14 02:39:30;;;;;;;11.70;5.57;;;;;;;-145.69;100.00;52594.91;5053116;28;20230;-82
2022/10/14 02:41:56;;;;;;;17.70;6.00;;;;;;;-145.69;100.00;52579.06;5052935;28;20200;-81
2022/10/14 02:44:23;;;;;;;12.75;5.57;;;;;;;-145.69;100.00;52600.84;5051938;28;20222;-81
2022/10/14 02:46:49;;;;;;;17.90;5.60;;;;;;;-145.69;100.00;52592.91;5052820;28;20199;-82
2022/10/14 02:49:18;;;;;;;11.53;5.40;;;;;;;-145.69;100.00;52626.59;5053046;28;20212;-81
2022/10/14 02:51:44;;;;;;;15.93;5.67;;;;;;;-145.69;100.00;52602.81;5052830;28;20203;-82
2022/10/14 02:54:11;;;;;;;8.03;5.37;;;;;;;-145.69;100.00;52612.72;5061236;28;20272;-82
2022/10/14 02:56:37;;;;;;;13.50;6.30;;;;;;;-145.69;100.00;52642.44;5072832;28;20202;-83
2022/10/14 02:59:04;;;;;;;10.90;5.33;;;;;;;-145.69;100.00;52606.78;5073051;28;20205;-81
2022/10/14 03:01:31;;;;;;;11.63;5.93;;;;;;;-145.69;100.00;52598.84;5073041;28;20203;-82
2022/10/14 03:03:57;;;;;;;16.67;6.67;;;;;;;-145.69;100.00;52598.84;5072839;28;20280;-84
2022/10/14 03:06:25;;;;;;;15.37;6.70;;;;;;;-145.69;100.00;52586.97;5072901;28;20195;-82
2022/10/14 03:08:52;;;;;;;16.70;8.33;;;;;;;-145.69;100.00;52618.66;5074105;28;20438;-83
2022/10/14 03:11:18;;;;;;;15.13;6.80;;;;;;;-145.69;100.00;52579.06;5076806;28;20645;-82
2022/10/14 03:13:51;;;;;;;13.13;5.90;;;;;;;-145.69;100.00;52602.81;5076706;28;20210;-81
2022/10/14 03:16:18;;;;;;;12.07;5.83;;;;;;;-145.69;100.00;52632.53;5076867;28;20194;-82
2022/10/14 03:18:44;;;;;;;14.30;5.93;;;;;;;-145.69;100.00;52624.59;5076705;28;20704;-81
2022/10/14 03:21:11;;;;;;;13.07;5.03;;;;;;;-145.69;100.00;52612.72;5075444;28;20213;-82
2022/10/14 03:23:40;;;;;;;11.77;5.00;;;;;;;-145.69;100.00;52630.53;5070995;28;20222;-82
2022/10/14 03:26:06;;;;;;;12.70;5.37;;;;;;;-145.69;100.00;52602.81;5056599;28;20281;-82
2022/10/14 03:28:35;;;;;;;12.67;4.70;;;;;;;-145.69;100.00;52622.63;5057103;28;20206;-84
2022/10/14 03:31:02;;;;;;;9.67;4.97;;;;;;;-145.69;100.00;52604.81;5057135;28;20207;-83
2022/10/14 03:33:29;;;;;;;8.77;4.47;;;;;;;-145.69;100.00;52602.81;5056665;28;20196;-83
2022/10/14 03:35:55;;;;;;;10.80;5.33;;;;;;;-145.69;100.00;52614.72;5055988;28;20223;-83
2022/10/14 03:38:22;;;;;;;15.47;5.00;;;;;;;-145.69;100.00;52616.69;5073988;28;20201;-82
2022/10/14 03:40:51;;;;;;;8.97;5.47;;;;;;;-145.69;100.00;52616.69;5076206;28;20289;-82
2022/10/14 03:43:17;;;;;;;9.17;5.13;;;;;;;-145.69;100.00;52624.59;5076029;28;20226;-84
2022/10/14 03:45:44;;;;;;;12.77;5.10;;;;;;;-145.69;100.00;52622.63;5076310;28;20561;-82
2022/10/14 03:48:11;;;;;;;8.97;5.57;;;;;;;-145.69;100.00;52602.81;5076009;28;20199;-83
2022/10/14 03:50:38;;;;;;;16.07;6.57;;;;;;;-145.69;100.00;52622.63;5076572;28;20286;-84
2022/10/14 03:53:04;;;;;;;15.60;6.13;;;;;;;-145.69;100.00;52648.38;5076409;28;20564;-83
2022/10/14 03:55:33;;;;;;;18.70;6.77;;;;;;;-145.69;100.00;52618.66;5076316;28;20206;-83
2022/10/14 03:58:01;;;;;;;15.13;6.53;;;;;;;-145.69;100.00;52632.53;5077299;28;20704;-83
2022/10/14 04:00:28;;;;;;;17.00;7.40;;;;;;;-145.69;100.00;52652.34;5076905;28;20232;-84
2022/10/14 04:02:54;;;;;;;17.23;6.33;;;;;;;-145.69;100.00;52644.41;5076474;28;20699;-83
2022/10/14 04:05:24;;;;;;;19.17;6.53;;;;;;;-145.69;100.00;52620.66;5076501;28;20202;-84
2022/10/14 04:07:50;;;;;;;19.97;7.13;;;;;;;-145.69;100.00;52650.34;5064539;28;20195;-83
2022/10/14 04:10:17;;;;;;;13.13;6.87;;;;;;;-145.69;100.00;52642.44;5056846;28;20206;-85
2022/10/14 04:12:43;;;;;;;16.30;6.90;;;;;;;-145.69;100.00;52642.44;5057598;28;20206;-85
2022/10/14 04:15:11;;;;;;;18.37;6.60;;;;;;;-145.69;100.00;52654.31;5057486;28;20210;-85
2022/10/14 04:17:40;;;;;;;13.87;7.57;;;;;;;-145.69;100.00;52632.53;5056682;28;20318;-84
2022/10/14 04:20:08;;;;;;;14.20;6.27;;;;;;;-145.69;100.00;52650.34;5056327;28;20207;-85
2022/10/14 04:22:34;;;;;;;14.37;5.93;;;;;;;-145.69;100.00;52624.59;5056434;28;20207;-84
2022/10/14 04:25:01;;;;;;;20.13;7.50;;;;;;;-145.69;100.00;52606.78;5054762;28;20282;-84
2022/10/14 04:27:31;;;;;;;17.33;6.93;;;;;;;-145.69;100.00;52636.50;5056227;28;20687;-84
2022/10/14 04:29:57;;;;;;;19.57;7.47;;;;;;;-145.69;100.00;52638.47;5039269;28;20253;-85
2022/10/14 04:32:25;;;;;;;19.70;7.47;;;;;;;-145.69;100.00;52646.41;5036476;28;20562;-86
2022/10/14 04:35:00;;;;;;;17.33;7.00;;;;;;;-145.69;100.00;52652.34;5037229;28;20651;-85
2022/10/14 04:37:27;;;;;;;19.53;6.70;;;;;;;-145.69;100.00;52640.44;5041998;28;20213;-86
2022/10/14 04:39:54;;;;;;;17.33;7.23;;;;;;;-145.69;100.00;52634.50;5078273;28;20207;-85
2022/10/14 04:42:25;;;;;;;18.37;7.60;;;;;;;-145.69;100.00;52644.41;5077621;28;20667;-86
2022/10/14 04:44:52;;;;;;;19.10;7.17;;;;;;;-145.69;100.00;52672.13;5076968;28;20284;-86
2022/10/14 04:47:19;;;;;;;16.90;8.13;;;;;;;-145.69;100.00;52626.59;5076851;28;20202;-86
2022/10/14 04:49:46;;;;;;;23.97;7.83;;;;;;;-145.69;100.00;52644.41;5076596;28;20225;-86
2022/10/14 04:52:13;;;;;;;17.23;8.03;;;;;;;-145.69;100.00;52646.41;5076215;28;20652;-86
2022/10/14 04:54:39;;;;;;;19.70;8.33;;;;;;;-145.69;100.00;52622.63;5076013;28;20203;-85
2022/10/14 04:57:06;;;;;;;17.03;7.93;;;;;;;-145.69;100.00;52634.50;5075820;28;20209;-84
2022/10/14 04:59:33;;;;;;;20.50;7.83;;;;;;;-145.69;100.00;52608.75;5075403;28;20621;-86
2022/10/14 05:01:59;;;;;;;26.33;8.00;;;;;;;-145.69;100.00;52608.75;5076106;28;20201;-84
2022/10/14 05:04:26;;;;;;;19.33;7.53;;;;;;;-145.69;100.00;52620.66;5075207;28;20230;-86
2022/10/14 05:06:54;;;;;;;21.40;7.93;;;;;;;-145.69;100.00;52632.53;5075791;28;20202;-84
2022/10/14 05:09:20;;;;;;;14.83;7.43;;;;;;;-145.69;100.00;52634.50;5074967;28;20199;-84
2022/10/14 05:11:47;;;;;;;18.17;8.07;;;;;;;-145.69;100.00;52600.84;5075156;28;20194;-85
2022/10/14 05:14:13;;;;;;;16.53;8.30;;;;;;;-145.69;100.00;52626.59;5076126;28;20199;-84
2022/10/14 05:16:40;;;;;;;21.33;8.10;;;;;;;-145.69;100.00;52606.78;5075384;28;20697;-85
2022/10/14 05:19:06;;;;;;;19.93;8.20;;;;;;;-145.69;100.00;52634.50;5074095;28;20235;-83
2022/10/14 05:21:33;;;;;;;24.40;8.40;;;;;;;-145.69;100.00;52636.50;5074685;28;20573;-84
2022/10/14 05:24:01;;;;;;;17.83;8.17;;;;;;;-145.69;100.00;52622.63;5074786;28;20237;-84
2022/10/14 05:26:27;;;;;;;18.20;7.30;;;;;;;-145.69;100.00;52630.53;5074884;28;20222;-84
2022/10/14 05:28:54;;;;;;;19.40;7.53;;;;;;;-145.69;100.00;52666.19;5074572;28;20211;-85
2022/10/14 05:31:20;;;;;;;17.80;8.63;;;;;;;-145.69;100.00;52618.66;5074151;28;20209;-83
2022/10/14 05:33:50;;;;;;;16.77;7.63;;;;;;;-145.69;100.00;52614.72;5075265;28;20206;-85
2022/10/14 05:36:16;;;;;;;17.23;7.37;;;;;;;-145.69;100.00;52644.41;5075029;28;20199;-86
2022/10/14 05:38:43;;;;;;;23.20;9.40;;;;;;;-145.69;100.00;52650.34;5073720;28;20203;-84
2022/10/14 05:41:11;;;;;;;24.03;10.27;;;;;;;-145.69;100.00;52598.84;5073750;28;20207;-85
2022/10/14 05:43:37;;;;;;;29.73;11.07;;;;;;;-145.69;100.00;52606.78;5075004;28;20245;-84
2022/10/14 05:46:04;;;;;;;23.57;10.57;;;;;;;-145.69;100.00;52610.75;5074234;28;20203;-84
2022/10/14 05:48:31;;;;;;;29.07;10.60;;;;;;;-145.69;100.00;52632.53;5074494;28;20202;-82
2022/10/14 05:51:01;;;;;;;22.20;10.20;;;;;;;-145.69;100.00;52634.50;5074047;28;20210;-83
2022/10/14 05:53:31;;;;;;;26.60;10.63;;;;;;;-145.69;100.00;52630.53;5074335;28;20248;-85
2022/10/14 05:56:01;;;;;;;24.80;10.50;;;;;;;-145.69;100.00;52622.63;5074817;28;20198;-85
2022/10/14 05:58:29;;;;;;;20.40;9.80;;;;;;;-145.69;100.00;52592.91;5073896;28;20203;-83
2022/10/14 06:00:59;;;;;;;20.93;9.60;;;;;;;-145.69;100.00;52592.91;5074305;28;20210;-84
2022/10/14 06:03:25;;;;;;;18.23;8.50;;;;;;;-145.69;100.00;52610.75;5074635;28;20218;-85
2022/10/14 06:05:52;;;;;;;23.50;9.20;;;;;;;-145.69;100.00;52590.94;5073840;28;20206;-85
2022/10/14 06:08:22;;;;;;;20.27;8.83;;;;;;;-145.69;100.00;52618.66;5054380;28;20574;-84
2022/10/14 06:10:49;;;;;;;18.67;8.15;;;;;;;-145.69;100.00;52618.66;5050287;28;20411;-83
2022/10/14 06:13:15;;;;;;;14.73;7.70;;;;;;;-145.69;100.00;52588.97;5051512;28;20199;-84
2022/10/14 06:15:43;;;;;;;17.03;7.77;;;;;;;-145.69;100.00;52586.97;5052843;28;20210;-84
2022/10/14 06:18:10;;;;;;;20.98;8.15;;;;;;;-145.69;100.00;52592.91;5053317;28;20235;-83
2022/10/14 06:20:36;;;;;;;15.40;8.20;;;;;;;-145.69;100.00;52606.78;5053165;28;20286;-82
2022/10/14 06:23:03;;;;;;;17.05;7.60;;;;;;;-145.69;100.00;52626.59;5053607;28;20208;-82
2022/10/14 06:25:31;;;;;;;17.48;7.80;;;;;;;-145.69;100.00;52579.06;5053121;28;20234;-82
2022/10/14 06:28:02;;;;;;;12.80;7.63;;;;;;;-145.69;100.00;52618.66;5053576;28;20646;-82
2022/10/14 06:30:29;;;;;;;15.13;7.50;;;;;;;-145.69;100.00;52628.56;5053512;28;20333;-82
2022/10/14 06:32:57;;;;;;;18.00;7.63;;;;;;;-145.69;100.00;52634.50;5052933;28;20195;-82
2022/10/14 06:35:23;;;;;;;19.92;8.25;;;;;;;-145.69;100.00;52579.06;5052550;28;20596;-81
2022/10/14 06:37:50;;;;;;;14.13;7.20;;;;;;;-145.69;100.00;52590.94;5050209;28;20203;-82
2022/10/14 06:40:19;;;;;;;16.52;6.22;;;;;;;-145.69;100.00;52606.78;5053542;28;20203;-83
2022/10/14 06:42:48;;;;;;;13.25;6.78;;;;;;;-145.69;100.00;52581.03;5052989;28;20204;-83
2022/10/14 06:45:14;;;;;;;12.00;6.38;;;;;;;-145.69;100.00;52586.97;5052149;28;20277;-82
2022/10/14 06:47:41;;;;;;;16.23;6.93;;;;;;;-145.69;100.00;52586.97;5053685;28;20200;-82
2022/10/14 06:50:09;;;;;;;16.45;6.57;;;;;;;-145.69;100.00;52559.25;5069153;28;20202;-82
2022/10/14 06:52:38;;;;;;;12.75;7.15;;;;;;;-145.69;100.00;52592.91;5053476;28;20203;-82
2022/10/14 06:55:06;;;;;;;13.82;6.80;;;;;;;-145.69;100.00;52557.28;5053628;28;20207;-82
2022/10/14 06:57:33;;;;;;;12.35;5.43;;;;;;;-145.69;100.00;52606.78;5052559;28;20650;-82
2022/10/14 07:00:00;;;;;;;11.27;4.85;;;;;;;-145.69;100.00;52579.06;5052687;28;20286;-82
2022/10/14 07:02:27;;;;;;;13.27;6.60;;;;;;;-145.69;100.00;52622.63;5053296;28;20214;-81
2022/10/14 07:04:55;;;;;;;10.88;5.25;;;;;;;-145.69;100.00;52588.97;5042428;28;20234;-81
2022/10/14 07:07:27;;;;;;;12.55;5.22;;;;;;;-145.69;100.00;52555.28;5033848;28;20204;-82
2022/10/14 07:09:56;;;;;;;12.45;5.43;;;;;;;-145.69;100.00;52586.97;5033488;28;20573;-82
2022/10/14 07:12:26;;;;;;;8.98;5.18;;;;;;;-145.69;100.00;52585.00;5032505;28;20291;-82
2022/10/14 07:14:53;;;;;;;8.68;4.68;;;;;;;-145.69;100.00;52575.09;5033110;28;20200;-82
2022/10/14 07:17:19;;;;;;;26.95;16.38;;;;;;;-145.69;100.00;52539.44;5033200;28;20208;-82
2022/10/14 07:19:48;;;;;;;12.18;4.63;;;;;;;-145.69;100.00;52579.06;5033345;28;20212;-82
2022/10/14 07:22:16;;;;;;;8.65;3.90;;;;;;;-145.69;100.00;52543.41;5033546;28;20199;-82
2022/10/14 07:24:44;;;;;;;5.63;3.70;;;;;;;-145.69;100.00;52575.09;5033472;28;20263;-83
2022/10/14 07:27:11;;;;;;;8.90;4.70;;;;;;;-145.69;100.00;52551.31;5033714;28;20205;-83
2022/10/14 07:29:39;;;;;;;12.63;6.57;;;;;;;-145.69;100.00;52563.22;5032989;28;20235;-83
2022/10/14 07:32:06;;;;;;;8.68;5.07;;;;;;;-145.69;100.00;52561.22;5032450;28;20211;-83
2022/10/14 07:34:34;;;;;;;10.50;5.00;;;;;;;-145.69;100.00;52583.00;5033230;28;20196;-83
2022/10/14 07:37:00;;;;;;;6.43;3.78;;;;;;;-145.69;100.00;52569.16;5033129;28;20196;-83
2022/10/14 07:39:27;;;;;;;6.57;3.85;;;;;;;-145.69;100.00;52551.31;5032931;28;20207;-83
2022/10/14 07:42:07;;;;;;;6.32;3.67;;;;;;;-145.69;100.00;52561.22;5032602;28;20211;-83
2022/10/14 07:44:33;;;;;;;9.45;3.80;;;;;;;-145.69;100.00;52523.59;5033144;28;20322;-83
2022/10/14 07:47:02;;;;;;;6.65;3.67;;;;;;;-145.69;100.00;52555.28;5032641;28;20286;-82
2022/10/14 07:49:30;;;;;;;11.45;4.35;;;;;;;-145.69;100.00;52557.28;5032477;28;20196;-82
2022/10/14 07:51:58;;;;;;;6.32;3.42;;;;;;;-145.69;100.00;52549.34;5032766;28;20196;-83
2022/10/14 07:54:28;;;;;;;9.20;3.40;;;;;;;-145.69;100.00;52553.31;5033986;28;20570;-81
2022/10/14 07:56:56;;;;;;;7.32;3.38;;;;;;;-145.69;100.00;52549.34;5036279;28;20215;-83
2022/10/14 07:59:25;;;;;;;6.53;3.58;;;;;;;-145.69;100.00;52523.59;5036328;28;20589;-81
2022/10/14 08:01:55;;;;;;;6.10;3.03;;;;;;;-145.69;100.00;52515.69;5036012;28;20581;-81
2022/10/14 08:04:22;;;;;;;6.88;3.40;;;;;;;-145.69;100.00;52525.59;5044658;28;20270;-81
2022/10/14 08:06:50;;;;;;;10.63;3.55;;;;;;;-145.69;100.00;52527.56;5038293;28;20227;-83
2022/10/14 08:09:18;;;;;;;7.43;3.50;;;;;;;-145.69;100.00;52527.56;5037577;28;20672;-83
2022/10/14 08:11:45;;;;;;;9.88;4.07;;;;;;;-145.69;100.00;52535.47;5039044;28;20250;-82
2022/10/14 08:14:12;;;;;;;11.80;3.83;;;;;;;-145.69;100.00;52521.63;5038148;28;20574;-82
2022/10/14 08:16:40;;;;;;;7.35;4.07;;;;;;;-145.69;100.00;52535.47;5038327;28;20204;-82
2022/10/14 08:19:09;;;;;;;6.97;3.78;;;;;;;-145.69;100.00;52515.69;5036928;28;20232;-82
2022/10/14 08:21:36;;;;;;;7.93;3.30;;;;;;;-145.69;100.00;52533.50;5036545;28;20200;-81
2022/10/14 08:24:03;;;;;;;10.68;3.72;;;;;;;-145.69;100.00;52549.34;5035885;28;20204;-81
2022/10/14 08:26:31;;;;;;;5.82;3.38;;;;;;;-145.69;100.00;52499.84;5036068;28;20200;-81
2022/10/14 08:29:00;;;;;;;5.70;3.42;;;;;;;-145.69;100.00;52515.69;5037531;28;20310;-82
2022/10/14 08:31:27;;;;;;;7.65;3.33;;;;;;;-145.69;100.00;52507.75;5044296;28;20208;-84
2022/10/14 08:33:55;;;;;;;4.93;2.80;;;;;;;-145.69;100.00;52491.91;5055756;28;20329;-82
2022/10/14 08:36:22;;;;;;;8.38;3.60;;;;;;;-145.69;100.00;52511.72;5055711;28;20199;-84
2022/10/14 08:38:49;;;;;;;7.38;3.80;;;;;;;-145.69;100.00;52499.84;5050056;28;20196;-82
2022/10/14 08:41:43;;;;;;;5.63;3.33;;;;;;;-145.69;100.00;52478.06;5056100;28;20211;-82
2022/10/14 08:44:15;;;;;;;14.00;3.40;;;;;;;-145.69;100.00;52519.63;5057037;28;20195;-82
2022/10/14 08:46:46;;;;;;;9.65;4.18;;;;;;;-145.69;100.00;52485.97;5059308;28;20203;-82
2022/10/14 08:49:19;;;;;;;5.65;3.50;;;;;;;-145.69;100.00;52511.72;5059247;28;20289;-84
2022/10/14 08:51:52;;;;;;;6.65;3.17;;;;;;;-145.69;100.00;52501.81;5055683;28;20203;-84
2022/10/14 08:54:29;;;;;;;6.93;3.60;;;;;;;-145.69;100.00;52499.84;5054767;28;20252;-84
2022/10/14 08:56:57;;;;;;;6.20;3.60;;;;;;;-145.69;100.00;52470.13;5054752;28;20290;-82
2022/10/14 08:59:26;;;;;;;11.20;3.67;;;;;;;-145.69;100.00;52484.00;5054867;28;20206;-84
2022/10/14 09:01:57;;;;;;;7.72;3.70;;;;;;;-145.69;100.00;52495.88;5054745;28;20208;-84
2022/10/14 09:04:25;;;;;;;9.10;3.10;;;;;;;-145.69;100.00;52503.81;5072758;28;20219;-84
2022/10/14 09:06:55;;;;;;;7.03;3.53;;;;;;;-145.69;100.00;52489.94;5073127;28;20282;-84
2022/10/14 09:09:26;;;;;;;4.57;3.00;;;;;;;-145.69;100.00;52497.84;5074070;28;20198;-83
2022/10/14 09:11:56;;;;;;;5.22;3.05;;;;;;;-145.69;100.00;52491.91;5074130;28;20190;-85
2022/10/14 09:14:26;;;;;;;7.13;3.28;;;;;;;-145.69;100.00;52487.97;5073589;28;20206;-82
2022/10/14 09:17:00;;;;;;;8.20;3.08;;;;;;;-145.69;100.00;52485.97;5074393;28;20245;-82
2022/10/14 09:19:31;;;;;;;10.00;3.42;;;;;;;-145.69;100.00;52501.81;5073216;28;20202;-84
2022/10/14 09:21:59;;;;;;;7.50;3.00;;;;;;;-145.69;100.00;52525.59;5072477;28;20205;-84
2022/10/14 09:24:28;;;;;;;6.97;3.20;;;;;;;-145.69;100.00;52491.91;5073875;28;20231;-83
2022/10/14 09:26:57;;;;;;;10.20;3.58;;;;;;;-145.69;100.00;52521.63;5072213;28;20200;-83
2022/10/14 09:29:26;;;;;;;4.90;2.45;;;;;;;-145.69;100.00;52497.84;5073963;28;20198;-84
2022/10/14 09:31:57;;;;;;;5.00;2.97;;;;;;;-145.69;100.00;52495.88;5074064;28;20206;-83
2022/10/14 09:34:32;;;;;;;8.23;3.17;;;;;;;-145.69;100.00;52501.81;5072850;28;20230;-84
2022/10/14 09:37:14;;;;;;;5.10;2.63;;;;;;;-145.69;100.00;52525.59;5073960;28;20198;-82
2022/10/14 09:39:41;;;;;;;8.68;2.83;;;;;;;-145.69;100.00;52468.16;5074186;28;20198;-82
2022/10/14 09:42:17;;;;;;;7.32;2.50;;;;;;;-145.69;100.00;52507.75;5073883;28;20198;-83
2022/10/14 09:44:44;;;;;;;5.93;2.55;;;;;;;-145.69;100.00;52503.81;5073484;28;20237;-82
2022/10/14 09:47:17;;;;;;;9.13;2.75;;;;;;;-145.69;100.00;52527.56;5073627;28;20214;-82
2022/10/14 09:49:48;;;;;;;7.20;2.90;;;;;;;-145.69;100.00;52509.75;5074158;28;20203;-82
2022/10/14 09:52:22;;;;;;;4.32;2.33;;;;;;;-145.69;100.00;52501.81;5073695;28;20557;-82
2022/10/14 09:54:54;;;;;;;7.18;2.28;;;;;;;-145.69;100.00;52515.69;5073996;28;20207;-83
2022/10/14 09:57:21;;;;;;;4.00;2.45;;;;;;;-145.69;100.00;52484.00;5073625;28;20255;-83
2022/10/14 09:59:52;;;;;;;5.78;2.28;;;;;;;-145.69;100.00;52491.91;5073912;28;20281;-83
2022/10/14 10:02:23;;;;;;;8.32;2.38;;;;;;;-145.69;100.00;52503.81;5068937;28;20191;-82
2022/10/14 10:04:53;;;;;;;4.18;2.30;;;;;;;-145.69;100.00;52503.81;5053631;28;20223;-82
2022/10/14 10:07:30;;;;;;;3.67;1.92;;;;;;;-145.69;100.00;52487.97;5053513;28;20650;-82
2022/10/14 10:09:58;;;;;;;3.53;2.00;;;;;;;-145.69;100.00;52476.06;5053453;28;20569;-83
2022/10/14 10:12:29;;;;;;;6.13;2.20;;;;;;;-145.69;100.00;52507.75;5053505;28;20199;-82
2022/10/14 10:14:58;;;;;;;4.75;2.03;;;;;;;-145.69;100.00;52495.88;5053546;28;20235;-82
2022/10/14 10:17:26;;;;;;;3.13;1.88;;;;;;;-145.69;100.00;52484.00;5056439;28;20215;-82
2022/10/14 10:20:11;;;;;;;7.32;1.88;;;;;;;-145.69;100.00;52519.63;5072977;28;20198;-82
2022/10/14 10:22:41;;;;;;;2.45;1.70;;;;;;;-145.69;100.00;52499.84;5073404;28;20202;-82
2022/10/14 10:25:24;;;;;;;3.08;1.67;;;;;;;-145.69;100.00;52484.00;5073120;28;20631;-82
2022/10/14 10:27:52;;;;;;;5.10;2.20;;;;;;;-145.69;100.00;52511.72;5073333;28;20205;-82
2022/10/14 10:30:26;;;;;;;3.70;1.88;;;;;;;-145.69;100.00;52499.84;5073112;28;20234;-82
2022/10/14 10:33:08;;;;;;;5.25;1.85;;;;;;;-145.69;100.00;52509.75;5073090;28;20229;-82
2022/10/14 10:35:52;;;;;;;2.50;1.70;;;;;;;-145.69;100.00;52517.66;5072804;28;20735;-82
2022/10/14 10:38:23;;;;;;;9.48;1.98;;;;;;;-145.69;100.00;52493.91;5070973;28;20206;-82
2022/10/14 10:41:09;;;;;;;3.22;1.60;;;;;;;-145.69;100.00;52503.81;5072636;28;20201;-82
2022/10/14 10:44:10;;;;;;;4.03;1.50;;;;;;;-145.69;100.00;52503.81;5059082;28;20269;-82
2022/10/14 10:46:54;;;;;;;4.68;1.90;;;;;;;-145.69;100.00;52491.91;5017027;28;20234;-82
2022/10/14 10:49:33;;;;;;;5.25;1.67;;;;;;;-145.69;100.00;52505.78;5070021;28;20566;-78
2022/10/14 10:52:08;;;;;;;6.20;2.25;;;;;;;-145.69;100.00;52495.88;5073175;28;20230;-82
2022/10/14 10:54:43;;;;;;;3.42;1.80;;;;;;;-145.69;100.00;52476.06;5073086;28;20205;-82
2022/10/14 10:57:23;;;;;;;4.50;1.58;;;;;;;-145.69;100.00;52484.00;5072659;28;20201;-82
2022/10/14 10:59:58;;;;;;;1.48;1.30;;;;;;;-145.69;100.00;52474.09;5072883;28;20965;-82
2022/10/14 11:02:53;;;;;;;3.50;1.33;;;;;;;-145.69;100.00;52464.19;5072927;28;20198;-82
2022/10/14 11:05:29;;;;;;;2.47;1.27;;;;;;;-145.69;100.00;52491.91;5073027;28;20218;-82
2022/10/14 11:13:51;;;;;;;2.72;1.08;;;;;;;-145.69;100.00;52478.06;5072713;28;20404;-83
2022/10/14 11:16:28;;;;;;;2.60;1.10;;;;;;;-145.69;100.00;52495.88;5072763;28;20209;-82
2022/10/14 11:19:05;;;;;;;1.70;1.00;;;;;;;-145.69;100.00;52478.06;5058441;28;20223;-83
2022/10/14 11:21:39;;;;;;;2.17;0.93;;;;;;;-145.69;100.00;52472.13;5053252;28;20235;-82